createdAt,value
2019-02-12T00:00:24.965Z,4.27
2019-02-12T00:02:55.073Z,4.23
2019-02-12T00:05:24.597Z,4.34
2019-02-12T00:07:53.916Z,4.28
2019-02-12T00:10:23.250Z,4.30
2019-02-12T00:12:53.612Z,4.24
2019-02-12T00:15:22.972Z,4.23
2019-02-12T00:17:52.368Z,4.18
2019-02-12T00:20:21.730Z,4.21
2019-02-12T00:22:51.092Z,4.23
2019-02-12T00:25:20.488Z,4.30
2019-02-12T00:27:49.816Z,4.37
2019-02-12T00:30:19.159Z,4.44
2019-02-12T00:32:48.499Z,4.20
2019-02-12T00:35:17.842Z,4.23
2019-02-12T00:37:47.167Z,4.36
2019-02-12T00:40:16.583Z,4.43
2019-02-12T00:42:46.052Z,4.45
2019-02-12T00:45:15.394Z,4.57
2019-02-12T00:47:44.720Z,4.70
2019-02-12T00:50:14.136Z,4.71
2019-02-12T00:52:43.584Z,4.74
2019-02-12T00:55:12.891Z,4.86
2019-02-12T00:57:42.236Z,4.95
2019-02-12T01:00:13.480Z,5.03
2019-02-12T01:02:42.798Z,5.08
2019-02-12T01:05:12.083Z,5.10
2019-02-12T01:07:41.416Z,5.11
2019-02-12T01:10:10.988Z,5.12
2019-02-12T01:12:40.384Z,5.13
2019-02-12T01:15:12.536Z,5.11
2019-02-12T01:17:41.844Z,5.17
2019-02-12T01:20:12.856Z,5.01
2019-02-12T01:22:42.240Z,5.13
2019-02-12T01:25:13.069Z,5.10
2019-02-12T01:27:43.306Z,5.14
2019-02-12T01:30:16.867Z,5.19
2019-02-12T01:32:45.059Z,5.17
2019-02-12T01:35:14.462Z,5.04
2019-02-12T01:37:43.867Z,5.09
2019-02-12T01:40:14.995Z,5.13
2019-02-12T01:42:44.326Z,5.11
2019-02-12T01:45:14.257Z,5.23
2019-02-12T01:47:43.601Z,5.09
2019-02-12T01:50:15.033Z,4.99
2019-02-12T01:52:44.504Z,5.09
2019-02-12T01:55:13.808Z,4.99
2019-02-12T01:57:43.140Z,4.89
2019-02-12T02:00:14.797Z,4.77
2019-02-12T02:02:44.527Z,4.72
2019-02-12T02:05:13.856Z,4.90
2019-02-12T02:07:43.187Z,4.89
2019-02-12T02:10:16.325Z,4.80
2019-02-12T02:12:45.764Z,4.68
2019-02-12T02:15:15.361Z,4.85
2019-02-12T02:17:44.835Z,4.90
2019-02-12T02:20:14.788Z,4.95
2019-02-12T02:22:44.219Z,5.01
2019-02-12T02:25:14.436Z,4.92
2019-02-12T02:27:43.804Z,5.05
2019-02-12T02:30:14.502Z,5.05
2019-02-12T02:32:43.788Z,5.11
2019-02-12T02:35:13.144Z,5.12
2019-02-12T02:37:42.493Z,5.09
2019-02-12T02:40:11.839Z,5.18
2019-02-12T02:42:41.183Z,5.25
2019-02-12T02:45:11.168Z,5.29
2019-02-12T02:47:40.508Z,5.23
2019-02-12T02:50:10.277Z,5.17
2019-02-12T02:52:39.574Z,5.12
2019-02-12T02:55:09.032Z,5.07
2019-02-12T02:57:38.339Z,5.11
2019-02-12T03:00:08.683Z,5.08
2019-02-12T03:02:38.042Z,5.12
2019-02-12T03:05:09.625Z,5.08
2019-02-12T03:07:38.928Z,5.09
2019-02-12T03:10:08.707Z,5.15
2019-02-12T03:12:38.017Z,5.22
2019-02-12T03:15:08.736Z,5.04
2019-02-12T03:17:38.072Z,5.02
2019-02-12T03:20:09.603Z,5.06
2019-02-12T03:22:38.869Z,5.11
2019-02-12T03:25:08.717Z,5.07
2019-02-12T03:27:38.249Z,5.10
2019-02-12T03:30:08.476Z,5.18
2019-02-12T03:32:37.772Z,5.21
2019-02-12T03:35:08.176Z,5.04
2019-02-12T03:37:37.522Z,5.06
2019-02-12T03:40:08.553Z,5.00
2019-02-12T03:42:37.883Z,5.01
2019-02-12T03:45:07.887Z,5.10
2019-02-12T03:47:37.232Z,5.21
2019-02-12T03:50:07.541Z,5.26
2019-02-12T03:52:36.895Z,5.15
2019-02-12T03:55:07.243Z,5.16
2019-02-12T03:57:36.562Z,5.16
2019-02-12T04:00:06.819Z,5.22
2019-02-12T04:05:38.072Z,5.08
2019-02-12T04:08:07.778Z,5.17
2019-02-12T04:10:37.062Z,5.05
2019-02-12T04:13:06.454Z,5.12
2019-02-12T04:15:35.723Z,5.17
2019-02-12T04:18:05.001Z,5.22
2019-02-12T04:20:34.347Z,5.12
2019-02-12T04:23:03.823Z,5.15
2019-02-12T04:25:33.090Z,5.23
2019-02-12T04:28:02.378Z,5.22
2019-02-12T04:30:32.185Z,5.24
2019-02-12T04:33:02.157Z,4.90
2019-02-12T04:35:31.449Z,4.98
2019-02-12T04:38:01.683Z,5.00
2019-02-12T04:40:30.971Z,5.04
2019-02-12T04:43:00.375Z,5.09
2019-02-12T04:45:29.858Z,5.08
2019-02-12T04:47:59.695Z,5.13
2019-02-12T04:50:29.030Z,5.17
2019-02-12T04:52:59.265Z,5.20
2019-02-12T04:55:28.649Z,5.26
2019-02-12T04:57:58.515Z,5.17
2019-02-12T05:00:27.930Z,5.20
2019-02-12T05:02:57.340Z,5.25
2019-02-12T05:05:26.755Z,5.23
2019-02-12T05:07:58.864Z,5.27
2019-02-12T05:10:31.445Z,5.30
2019-02-12T05:13:00.766Z,5.20
2019-02-12T05:15:30.153Z,5.23
2019-02-12T05:17:59.484Z,5.27
2019-02-12T05:20:28.820Z,5.27
2019-02-12T05:22:58.774Z,5.17
2019-02-12T05:25:29.177Z,5.04
2019-02-12T05:27:58.535Z,5.13
2019-02-12T05:30:27.856Z,5.00
2019-02-12T05:32:57.183Z,5.08
2019-02-12T05:35:26.560Z,5.14
2019-02-12T05:37:55.935Z,5.12
2019-02-12T05:40:25.234Z,5.13
2019-02-12T05:42:54.683Z,5.10
2019-02-12T05:45:23.983Z,5.15
2019-02-12T05:47:53.337Z,5.06
2019-02-12T05:50:22.575Z,5.06
2019-02-12T05:52:54.521Z,4.95
2019-02-12T05:55:21.241Z,4.98
2019-02-12T05:57:50.564Z,4.90
2019-02-12T06:00:20.450Z,4.86
2019-02-12T06:02:50.271Z,4.94
2019-02-12T06:05:27.431Z,4.95
2019-02-12T06:07:57.371Z,4.89
2019-02-12T06:10:26.825Z,4.96
2019-02-12T06:12:56.140Z,4.83
2019-02-12T06:15:25.512Z,4.86
2019-02-12T06:17:55.840Z,4.88
2019-02-12T06:20:25.093Z,4.91
2019-02-12T06:23:03.054Z,4.87
2019-02-12T06:25:23.896Z,4.98
2019-02-12T06:27:53.216Z,5.01
2019-02-12T06:30:23.228Z,5.06
2019-02-12T06:32:52.524Z,5.05
2019-02-12T06:35:21.812Z,5.01
2019-02-12T06:37:51.164Z,5.01
2019-02-12T06:40:20.496Z,4.94
2019-02-12T06:42:49.830Z,4.99
2019-02-12T06:45:19.171Z,4.93
2019-02-12T06:47:48.543Z,4.77
2019-02-12T06:50:17.924Z,4.78
2019-02-12T06:52:48.167Z,4.84
2019-02-12T06:55:17.512Z,4.82
2019-02-12T06:57:46.922Z,4.80
2019-02-12T07:00:17.097Z,4.67
2019-02-12T07:03:03.552Z,4.65
2019-02-12T07:05:41.744Z,4.72
2019-02-12T07:09:29.845Z,4.68
2019-02-12T07:13:18.321Z,4.73
2019-02-12T07:16:03.153Z,4.92
2019-02-12T07:19:01.509Z,4.83
2019-02-12T07:21:55.036Z,4.92
2019-02-12T07:24:48.348Z,4.98
2019-02-12T07:27:38.288Z,5.07
2019-02-12T07:31:23.756Z,5.11
2019-02-12T07:34:23.603Z,5.06
2019-02-12T07:37:09.980Z,5.16
2019-02-12T07:39:58.565Z,5.17
2019-02-12T07:42:57.353Z,5.12
2019-02-12T07:46:39.733Z,5.12
2019-02-12T07:49:30.519Z,5.06
2019-02-12T07:52:14.561Z,5.05
2019-02-12T07:54:57.446Z,5.10
2019-02-12T07:58:24.185Z,5.02
2019-02-12T08:01:04.111Z,4.97
2019-02-12T08:05:20.713Z,4.99
2019-02-12T08:08:15.462Z,5.07
2019-02-12T08:11:03.070Z,5.16
2019-02-12T08:15:49.466Z,5.25
2019-02-12T08:19:03.278Z,5.16
2019-02-12T08:21:52.655Z,5.17
2019-02-12T08:24:36.345Z,5.16
2019-02-12T08:29:38.777Z,4.99
2019-02-12T08:32:27.630Z,4.96
2019-02-12T08:37:46.075Z,4.96
2019-02-12T08:40:49.969Z,4.89
2019-02-12T08:43:37.603Z,5.10
2019-02-12T08:46:36.735Z,5.28
2019-02-12T08:49:25.599Z,5.37
2019-02-12T08:52:22.369Z,5.43
2019-02-12T08:56:12.017Z,5.07
2019-02-12T08:58:57.857Z,5.41
2019-02-12T09:01:43.845Z,5.45
2019-02-12T09:04:45.156Z,5.30
2019-02-12T09:07:26.412Z,5.47
2019-02-12T09:10:28.946Z,5.65
2019-02-12T09:13:59.886Z,5.86
2019-02-12T09:19:10.861Z,5.69
2019-02-12T09:24:08.415Z,5.78
2019-02-12T09:27:15.039Z,5.83
2019-02-12T09:30:02.432Z,6.10
2019-02-12T09:34:48.978Z,6.15
2019-02-12T09:37:35.326Z,6.27
2019-02-12T09:40:48.563Z,6.41
2019-02-12T09:43:38.405Z,6.19
2019-02-12T09:46:32.026Z,6.25
2019-02-12T09:49:41.770Z,6.38
2019-02-12T09:52:28.957Z,5.94
2019-02-12T09:55:12.911Z,6.24
2019-02-12T10:02:04.105Z,6.22
2019-02-12T10:05:01.905Z,6.05
2019-02-12T10:08:01.966Z,6.24
2019-02-12T10:13:12.737Z,6.22
2019-02-12T10:16:01.607Z,6.50
2019-02-12T10:19:04.302Z,6.69
2019-02-12T10:21:50.428Z,6.43
2019-02-12T10:24:36.227Z,6.69
2019-02-12T10:27:58.643Z,6.93
2019-02-12T10:30:42.474Z,6.91
2019-02-12T10:33:11.930Z,6.75
2019-02-12T10:35:41.369Z,6.72
2019-02-12T10:40:40.740Z,6.69
2019-02-12T10:43:10.096Z,6.87
2019-02-12T10:45:39.585Z,6.89
2019-02-12T10:48:09.007Z,6.83
2019-02-12T10:50:38.405Z,6.61
2019-02-12T10:53:08.947Z,6.79
2019-02-12T10:55:37.916Z,6.63
2019-02-12T10:58:08.593Z,6.43
2019-02-12T11:00:36.937Z,6.37
2019-02-12T11:03:13.021Z,6.41
2019-02-12T11:05:42.509Z,6.46
2019-02-12T11:08:11.948Z,6.49
2019-02-12T11:10:41.376Z,6.60
2019-02-12T11:13:10.932Z,6.40
2019-02-12T11:15:40.751Z,6.39
2019-02-12T11:18:10.278Z,6.63
2019-02-12T11:20:39.617Z,6.78
2019-02-12T11:23:10.962Z,6.70
2019-02-12T11:25:39.258Z,6.65
2019-02-12T11:28:08.636Z,6.66
2019-02-12T11:30:38.074Z,6.68
2019-02-12T11:33:07.515Z,6.66
2019-02-12T11:35:37.052Z,6.72
2019-02-12T11:38:06.436Z,6.87
2019-02-12T11:40:35.965Z,6.89
2019-02-12T11:43:05.517Z,7.09
2019-02-12T11:45:34.999Z,7.18
2019-02-12T11:48:04.396Z,7.32
2019-02-12T11:50:33.917Z,7.39
2019-02-12T11:53:03.361Z,7.26
2019-02-12T11:55:32.916Z,7.35
2019-02-12T11:58:02.308Z,7.43
2019-02-12T12:00:36.092Z,7.45
2019-02-12T12:03:05.512Z,7.34
2019-02-12T12:05:35.005Z,7.39
2019-02-12T12:08:04.530Z,7.26
2019-02-12T12:10:33.937Z,7.37
2019-02-12T12:13:03.312Z,7.38
2019-02-12T12:15:32.763Z,7.34
2019-02-12T12:18:02.232Z,7.42
2019-02-12T12:20:31.730Z,7.28
2019-02-12T12:23:01.136Z,7.41
2019-02-12T12:25:31.156Z,7.36
2019-02-12T12:28:00.594Z,7.41
2019-02-12T12:30:30.051Z,7.63
2019-02-12T12:32:59.516Z,7.89
2019-02-12T12:35:29.002Z,8.17
2019-02-12T12:37:58.394Z,8.33
2019-02-12T12:40:27.892Z,8.50
2019-02-12T12:42:57.305Z,7.94
2019-02-12T12:45:26.652Z,8.03
2019-02-12T12:47:56.073Z,7.97
2019-02-12T12:50:25.484Z,8.22
2019-02-12T12:52:55.001Z,8.35
2019-02-12T12:55:25.410Z,8.40
2019-02-12T12:57:53.885Z,8.48
2019-02-12T13:00:24.351Z,8.24
2019-02-12T13:02:53.972Z,8.54
2019-02-12T13:05:23.406Z,8.51
2019-02-12T13:07:52.941Z,8.53
2019-02-12T13:10:22.441Z,8.44
2019-02-12T13:12:51.815Z,8.69
2019-02-12T13:15:21.281Z,8.87
2019-02-12T13:17:50.828Z,8.77
2019-02-12T13:20:20.240Z,8.68
2019-02-12T13:22:49.679Z,8.50
2019-02-12T13:25:19.215Z,8.88
2019-02-12T13:27:48.669Z,8.81
2019-02-12T13:30:18.130Z,9.01
2019-02-12T13:32:47.573Z,9.21
2019-02-12T13:35:17.065Z,9.18
2019-02-12T13:37:46.601Z,9.24
2019-02-12T13:40:16.066Z,9.33
2019-02-12T13:42:47.226Z,9.36
2019-02-12T13:45:15.243Z,9.39
2019-02-12T13:47:44.709Z,9.63
2019-02-12T13:50:14.168Z,9.73
2019-02-12T13:52:43.582Z,9.48
2019-02-12T13:55:17.368Z,9.25
2019-02-12T13:57:42.667Z,9.48
2019-02-12T14:00:13.620Z,9.45
2019-02-12T14:02:43.080Z,9.57
2019-02-12T14:05:15.578Z,9.84
2019-02-12T14:07:45.011Z,9.99
2019-02-12T14:10:14.493Z,10.14
2019-02-12T14:12:43.972Z,9.82
2019-02-12T14:15:14.186Z,9.61
2019-02-12T14:17:43.622Z,9.27
2019-02-12T14:20:14.094Z,9.61
2019-02-12T14:22:43.566Z,9.59
2019-02-12T14:25:13.061Z,9.93
2019-02-12T14:27:42.533Z,10.30
2019-02-12T14:30:13.694Z,10.05
2019-02-12T14:32:43.097Z,10.19
2019-02-12T14:35:12.813Z,10.43
2019-02-12T14:37:42.268Z,10.39
2019-02-12T14:40:11.999Z,10.24
2019-02-12T14:42:41.500Z,10.36
2019-02-12T14:45:12.734Z,10.17
2019-02-12T14:47:42.168Z,9.83
2019-02-12T14:50:12.239Z,9.78
2019-02-12T14:52:41.677Z,9.72
2019-02-12T14:55:11.085Z,9.61
2019-02-12T14:57:40.522Z,9.38
2019-02-12T15:00:12.776Z,9.60
2019-02-12T15:02:42.133Z,9.51
2019-02-12T15:05:11.512Z,9.56
2019-02-12T15:07:40.973Z,9.39
2019-02-12T15:10:11.583Z,9.38
2019-02-12T15:12:41.032Z,9.39
2019-02-12T15:15:10.560Z,9.33
2019-02-12T15:17:39.990Z,8.97
2019-02-12T15:20:09.911Z,8.72
2019-02-12T15:22:39.550Z,8.79
2019-02-12T15:25:09.440Z,8.84
2019-02-12T15:27:39.059Z,8.76
2019-02-12T15:30:11.245Z,8.80
2019-02-12T15:32:40.818Z,8.85
2019-02-12T15:35:10.930Z,8.67
2019-02-12T15:37:41.169Z,8.72
2019-02-12T15:40:13.144Z,8.69
2019-02-12T15:42:42.660Z,8.67
2019-02-12T15:45:14.866Z,8.56
2019-02-12T15:47:44.483Z,8.42
2019-02-12T15:50:13.937Z,8.38
2019-02-12T15:52:43.415Z,8.36
2019-02-12T15:55:13.290Z,8.40
2019-02-12T15:57:45.594Z,8.31
2019-02-12T16:00:16.097Z,8.05
2019-02-12T16:02:44.841Z,8.29
2019-02-12T16:05:14.489Z,8.34
2019-02-12T16:07:45.173Z,8.35
2019-02-12T16:10:17.030Z,8.40
2019-02-12T16:12:46.527Z,8.03
2019-02-12T16:15:21.918Z,7.80
2019-02-12T16:17:48.994Z,7.66
2019-02-12T16:20:18.466Z,7.66
2019-02-12T16:22:48.425Z,7.74
2019-02-12T16:25:17.821Z,7.72
2019-02-12T16:27:47.282Z,7.70
2019-02-12T16:30:17.344Z,7.76
2019-02-12T16:32:46.790Z,7.78
2019-02-12T16:35:16.668Z,7.82
2019-02-12T16:37:48.514Z,7.84
2019-02-12T16:40:18.069Z,7.85
2019-02-12T16:43:50.137Z,7.88
2019-02-12T16:46:23.297Z,7.85
2019-02-12T16:48:51.793Z,7.74
2019-02-12T16:51:21.241Z,7.68
2019-02-12T16:53:50.738Z,7.60
2019-02-12T16:56:20.259Z,7.42
2019-02-12T16:58:49.676Z,7.48
2019-02-12T17:01:19.109Z,7.41
2019-02-12T17:03:48.610Z,7.45
2019-02-12T17:06:18.193Z,7.40
2019-02-12T17:08:47.716Z,7.39
2019-02-12T17:11:17.195Z,7.47
2019-02-12T17:13:46.681Z,7.50
2019-02-12T17:16:16.056Z,7.52
2019-02-12T17:18:45.633Z,7.54
2019-02-12T17:21:15.054Z,7.54
2019-02-12T17:23:44.447Z,7.51
2019-02-12T17:26:16.468Z,7.52
2019-02-12T17:28:43.333Z,7.50
2019-02-12T17:31:12.836Z,7.48
2019-02-12T17:33:42.293Z,7.37
2019-02-12T17:36:11.748Z,7.36
2019-02-12T17:38:41.276Z,7.37
2019-02-12T17:41:10.697Z,7.36
2019-02-12T17:43:40.127Z,7.36
2019-02-12T17:46:09.660Z,7.33
2019-02-12T17:48:39.117Z,7.29
2019-02-12T17:51:08.513Z,7.29
2019-02-12T17:53:37.817Z,7.28
2019-02-12T17:56:07.204Z,7.24
2019-02-12T17:58:36.564Z,7.19
2019-02-12T18:01:06.153Z,7.14
2019-02-12T18:03:35.639Z,7.08
2019-02-12T18:06:05.110Z,7.05
2019-02-12T18:08:34.550Z,7.07
2019-02-12T18:11:04.005Z,7.05
2019-02-12T18:13:34.153Z,7.02
2019-02-12T18:16:03.611Z,7.00
2019-02-12T18:18:33.105Z,6.96
2019-02-12T18:21:02.540Z,6.97
2019-02-12T18:23:31.898Z,6.95
2019-02-12T18:26:01.229Z,6.95
2019-02-12T18:28:30.592Z,6.96
2019-02-12T18:31:00.028Z,6.94
2019-02-12T18:33:29.384Z,6.92
2019-02-12T18:35:58.845Z,6.89
2019-02-12T18:38:28.321Z,6.85
2019-02-12T18:40:57.712Z,6.85
2019-02-12T18:43:27.083Z,6.81
2019-02-12T18:45:56.489Z,6.75
2019-02-12T18:48:25.877Z,6.73
2019-02-12T18:50:55.262Z,6.70
2019-02-12T18:53:24.857Z,6.68
2019-02-12T18:55:54.314Z,6.63
2019-02-12T18:58:23.717Z,6.64
2019-02-12T19:00:53.091Z,6.62
2019-02-12T19:03:22.489Z,6.58
2019-02-12T19:05:51.941Z,6.53
2019-02-12T19:08:21.379Z,6.50
2019-02-12T19:10:50.796Z,6.45
2019-02-12T19:13:20.197Z,6.40
2019-02-12T19:15:49.688Z,6.37
2019-02-12T19:18:23.657Z,6.34
2019-02-12T19:20:53.064Z,6.31
2019-02-12T19:23:22.521Z,6.30
2019-02-12T19:25:51.985Z,6.28
2019-02-12T19:28:21.345Z,6.28
2019-02-12T19:30:50.832Z,6.25
2019-02-12T19:33:20.345Z,6.26
2019-02-12T19:35:49.767Z,6.23
2019-02-12T19:38:19.177Z,6.20
2019-02-12T19:40:48.633Z,6.19
2019-02-12T19:43:18.020Z,6.21
2019-02-12T19:45:47.442Z,6.15
2019-02-12T19:48:16.991Z,6.13
2019-02-12T19:50:46.488Z,6.12
2019-02-12T19:53:15.932Z,6.08
2019-02-12T19:55:45.309Z,6.05
2019-02-12T19:58:14.720Z,6.02
2019-02-12T20:00:44.148Z,6.06
2019-02-12T20:03:13.586Z,6.06
2019-02-12T20:05:42.940Z,6.01
2019-02-12T20:08:12.397Z,5.97
2019-02-12T20:10:41.760Z,6.00
2019-02-12T20:13:11.193Z,5.98
2019-02-12T20:15:40.511Z,5.97
2019-02-12T20:18:09.949Z,5.94
2019-02-12T20:20:39.409Z,5.94
2019-02-12T20:23:08.799Z,5.93
2019-02-12T20:25:38.173Z,5.92
2019-02-12T20:28:07.565Z,5.92
2019-02-12T20:30:36.996Z,5.94
2019-02-12T20:33:06.419Z,5.93
2019-02-12T20:35:36.599Z,5.87
2019-02-12T20:38:05.205Z,5.83
2019-02-12T20:40:34.564Z,5.83
2019-02-12T20:43:03.973Z,5.82
2019-02-12T20:45:33.445Z,5.79
2019-02-12T20:48:02.838Z,5.77
2019-02-12T20:50:32.140Z,5.69
2019-02-12T20:53:01.496Z,5.65
2019-02-12T20:55:30.900Z,5.55
2019-02-12T20:58:00.232Z,5.54
2019-02-12T21:00:29.601Z,5.51
2019-02-12T21:02:58.952Z,5.39
2019-02-12T21:05:28.316Z,5.34
2019-02-12T21:07:57.732Z,5.36
2019-02-12T21:10:27.109Z,5.36
2019-02-12T21:12:56.460Z,5.37
2019-02-12T21:15:26.001Z,5.36
2019-02-12T21:17:55.360Z,5.25
2019-02-12T21:20:25.842Z,5.23
2019-02-12T21:22:55.320Z,5.23
2019-02-12T21:25:25.470Z,5.24
2019-02-12T21:27:54.956Z,5.18
2019-02-12T21:30:24.658Z,5.22
2019-02-12T21:32:54.047Z,5.14
2019-02-12T21:35:23.507Z,5.20
2019-02-12T21:37:52.974Z,5.19
2019-02-12T21:40:23.055Z,5.13
2019-02-12T21:42:52.585Z,5.18
2019-02-12T21:45:22.020Z,5.17
2019-02-12T21:47:51.470Z,5.14
2019-02-12T21:50:20.901Z,5.09
2019-02-12T21:52:50.446Z,5.03
2019-02-12T21:55:19.912Z,5.05
2019-02-12T21:57:49.362Z,5.05
2019-02-12T22:00:19.289Z,4.98
2019-02-12T22:02:48.670Z,5.01
2019-02-12T22:05:18.097Z,4.97
2019-02-12T22:07:47.580Z,4.99
2019-02-12T22:10:18.646Z,4.93
2019-02-12T22:12:48.100Z,4.90
2019-02-12T22:15:17.652Z,4.93
2019-02-12T22:17:47.040Z,4.88
2019-02-12T22:20:17.188Z,4.91
2019-02-12T22:22:46.636Z,4.92
2019-02-12T22:25:16.275Z,4.90
2019-02-12T22:27:46.892Z,4.94
2019-02-12T22:30:19.367Z,4.89
2019-02-12T22:32:48.806Z,4.85
2019-02-12T22:35:18.237Z,4.87
2019-02-12T22:37:47.616Z,4.83
2019-02-12T22:40:17.033Z,4.88
2019-02-12T22:42:46.444Z,4.87
2019-02-12T22:45:17.924Z,4.86
2019-02-12T22:47:47.367Z,4.86
2019-02-12T22:50:16.697Z,4.86
2019-02-12T22:52:46.147Z,4.87
2019-02-12T22:55:15.515Z,4.81
2019-02-12T22:57:49.255Z,4.80
2019-02-12T23:00:34.276Z,4.78
2019-02-12T23:03:03.628Z,4.77
2019-02-12T23:05:33.104Z,4.80
2019-02-12T23:08:02.483Z,4.77
2019-02-12T23:10:31.854Z,4.73
2019-02-12T23:13:01.228Z,4.72
2019-02-12T23:15:30.555Z,4.74
2019-02-12T23:18:00.050Z,4.78
2019-02-12T23:20:29.385Z,4.74
2019-02-12T23:22:59.167Z,4.68
2019-02-12T23:25:28.469Z,4.65
2019-02-12T23:27:57.921Z,4.65
2019-02-12T23:30:27.548Z,4.66
2019-02-12T23:32:57.024Z,4.66
2019-02-12T23:35:26.682Z,4.62
2019-02-12T23:37:56.154Z,4.61
2019-02-12T23:40:25.665Z,4.67
2019-02-12T23:42:55.092Z,4.68
2019-02-12T23:45:24.497Z,4.62
2019-02-12T23:47:53.899Z,4.57
2019-02-12T23:50:23.366Z,4.45
2019-02-12T23:52:52.784Z,4.48
2019-02-12T23:55:22.207Z,4.51
2019-02-12T23:57:51.595Z,4.57
